Terminal Aerodrome Forecast
Issued by NWS

Home | Current Version | Previous Version | Graphics & Text | Print | Product List | Glossary On
Versions: 1 2 3 4 5 6 7 8 9 10 11 12 13 14 15 16 17 18 19
000
FTUS43 KGRB 171400 AAA
TAFATW
TAF AMD
KATW 171415Z 1714/1812 29009G17KT P6SM BKN015 BKN050
     FM172000 32013G24KT P6SM SCT010 BKN022
      TEMPO 1721/1801 5SM -SHRA BR BKN010
     FM180100 32013G20KT P6SM VCSH SCT010 BKN025=

USA.gov is the U.S. government's official web portal to all federal, state and local government web resources and services.